createdAt,value
2023-03-28T00:01:03.886Z,1.17
2023-03-28T00:03:49.293Z,1.20
2023-03-28T00:06:18.681Z,1.43
2023-03-28T00:08:47.648Z,1.57
2023-03-28T00:11:20.442Z,1.70
2023-03-28T00:13:57.715Z,1.27
2023-03-28T00:16:26.003Z,1.47
2023-03-28T00:18:53.338Z,1.00
2023-03-28T00:21:20.019Z,2.17
2023-03-28T00:23:46.875Z,0.90
2023-03-28T00:26:14.735Z,1.80
2023-03-28T00:28:41.436Z,1.40
2023-03-28T00:31:08.517Z,1.60
2023-03-28T00:33:35.508Z,1.57
2023-03-28T00:36:02.553Z,1.70
2023-03-28T00:38:29.630Z,1.30
2023-03-28T00:40:57.895Z,1.20
2023-03-28T00:43:42.404Z,1.50
2023-03-28T00:46:35.411Z,1.50
2023-03-28T00:49:34.883Z,1.50
2023-03-28T00:52:24.271Z,1.33
2023-03-28T00:54:53.108Z,1.63
2023-03-28T00:57:20.942Z,1.50
2023-03-28T00:59:47.760Z,1.70
2023-03-28T01:02:14.496Z,1.83
2023-03-28T01:04:54.350Z,1.77
2023-03-28T01:07:22.864Z,2.37
2023-03-28T01:09:51.021Z,1.93
2023-03-28T01:12:19.845Z,2.40
2023-03-28T01:14:47.758Z,1.53
2023-03-28T01:17:16.161Z,1.50
2023-03-28T01:19:58.776Z,1.27
2023-03-28T01:22:31.805Z,1.53
2023-03-28T01:25:17.095Z,1.27
2023-03-28T01:28:02.246Z,1.20
2023-03-28T01:30:56.462Z,1.20
2023-03-28T01:34:04.898Z,1.40
2023-03-28T01:36:52.471Z,1.63
2023-03-28T01:39:53.669Z,1.83
2023-03-28T01:42:36.225Z,2.07
2023-03-28T01:45:28.535Z,1.37
2023-03-28T01:48:03.202Z,1.57
2023-03-28T01:50:36.555Z,1.40
2023-03-28T01:53:27.337Z,1.33
2023-03-28T01:56:03.452Z,1.50
2023-03-28T01:59:02.712Z,1.40
2023-03-28T02:02:21.895Z,1.17
2023-03-28T02:04:52.011Z,1.00
2023-03-28T02:07:26.135Z,1.00
2023-03-28T02:10:06.827Z,1.67
2023-03-28T02:12:54.173Z,0.97
2023-03-28T02:15:42.011Z,1.23
2023-03-28T02:18:34.228Z,1.30
2023-03-28T02:21:25.441Z,1.00
2023-03-28T02:24:07.460Z,1.40
2023-03-28T02:26:53.732Z,1.23
2023-03-28T02:29:54.674Z,0.90
2023-03-28T02:32:38.388Z,1.00
2023-03-28T02:35:25.213Z,0.80
2023-03-28T02:38:16.775Z,1.07
2023-03-28T02:41:18.219Z,1.20
2023-03-28T02:44:06.198Z,1.00
2023-03-28T02:46:54.564Z,0.90
2023-03-28T02:49:53.686Z,0.93
2023-03-28T02:52:40.189Z,0.93
2023-03-28T02:55:25.544Z,1.13
2023-03-28T02:58:10.357Z,0.67
2023-03-28T03:00:39.774Z,1.20
2023-03-28T03:03:25.938Z,1.10
2023-03-28T03:05:52.811Z,1.40
2023-03-28T03:08:19.643Z,1.27
2023-03-28T03:10:46.932Z,1.00
2023-03-28T03:13:13.703Z,0.93
2023-03-28T03:21:29.320Z,1.73
2023-03-28T03:23:56.414Z,1.20
2023-03-28T03:26:23.214Z,1.00
2023-03-28T03:29:01.671Z,0.90
2023-03-28T03:31:32.151Z,0.90
2023-03-28T03:34:24.251Z,0.90
2023-03-28T03:36:54.970Z,1.00
2023-03-28T03:39:23.260Z,1.10
2023-03-28T03:41:50.307Z,0.90
2023-03-28T03:44:17.159Z,1.10
2023-03-28T03:46:44.359Z,1.07
2023-03-28T03:49:11.259Z,1.03
2023-03-28T03:51:39.476Z,1.23
2023-03-28T03:54:07.119Z,1.13
2023-03-28T03:56:36.901Z,1.00
2023-03-28T03:59:04.008Z,1.23
2023-03-28T04:01:50.998Z,1.07
2023-03-28T04:04:24.387Z,0.80
2023-03-28T04:07:04.027Z,0.80
2023-03-28T04:09:32.144Z,0.93
2023-03-28T04:12:02.154Z,0.90
2023-03-28T04:14:30.416Z,1.00
2023-03-28T04:17:23.561Z,0.97
2023-03-28T04:20:29.845Z,0.67
2023-03-28T04:23:08.542Z,1.10
2023-03-28T04:25:37.031Z,0.80
2023-03-28T04:28:09.756Z,0.97
2023-03-28T04:30:58.238Z,1.00
2023-03-28T04:33:57.357Z,0.83
2023-03-28T04:36:25.842Z,1.13
2023-03-28T04:39:02.856Z,0.87
2023-03-28T04:41:49.913Z,1.03
2023-03-28T04:44:26.003Z,0.70
2023-03-28T04:47:02.181Z,1.20
2023-03-28T04:49:48.879Z,0.80
2023-03-28T04:52:16.115Z,0.83
2023-03-28T04:54:45.659Z,0.77
2023-03-28T04:57:15.738Z,1.03
2023-03-28T04:59:45.529Z,1.00
2023-03-28T05:02:21.735Z,1.93
2023-03-28T05:05:18.046Z,1.67
2023-03-28T05:07:45.340Z,1.50
2023-03-28T05:10:14.117Z,1.10
2023-03-28T05:12:41.407Z,1.23
2023-03-28T05:15:08.938Z,1.17
2023-03-28T05:17:47.235Z,1.23
2023-03-28T05:20:40.885Z,1.47
2023-03-28T05:23:08.258Z,1.70
2023-03-28T05:25:38.737Z,1.73
2023-03-28T05:28:06.101Z,1.33
2023-03-28T05:30:33.997Z,1.50
2023-03-28T05:33:01.712Z,1.20
2023-03-28T05:35:29.713Z,0.90
2023-03-28T05:40:43.388Z,1.03
2023-03-28T05:43:10.131Z,0.80
2023-03-28T05:45:38.316Z,0.97
2023-03-28T05:48:18.958Z,1.00
2023-03-28T05:50:48.493Z,0.97
2023-03-28T05:53:16.105Z,1.33
2023-03-28T05:55:43.117Z,1.60
2023-03-28T05:58:11.143Z,1.20
2023-03-28T06:00:40.175Z,0.97
2023-03-28T06:03:16.369Z,1.17
2023-03-28T06:05:45.073Z,1.13
2023-03-28T06:08:19.678Z,1.50
2023-03-28T06:10:46.778Z,0.97
2023-03-28T06:13:24.747Z,1.00
2023-03-28T06:15:51.890Z,0.80
2023-03-28T06:18:41.517Z,1.30
2023-03-28T06:21:08.316Z,0.80
2023-03-28T06:23:35.212Z,1.37
2023-03-28T06:26:03.523Z,1.00
2023-03-28T06:28:37.540Z,1.27
2023-03-28T06:31:20.519Z,1.10
2023-03-28T06:33:48.523Z,1.50
2023-03-28T06:36:18.644Z,1.37
2023-03-28T06:38:46.687Z,1.20
2023-03-28T06:41:13.625Z,1.17
2023-03-28T06:43:43.865Z,1.00
2023-03-28T06:46:30.830Z,1.13
2023-03-28T06:48:59.269Z,1.10
2023-03-28T06:51:44.959Z,1.50
2023-03-28T06:54:12.025Z,1.83
2023-03-28T06:56:38.841Z,1.20
2023-03-28T06:59:05.891Z,1.53
2023-03-28T07:01:34.390Z,1.40
2023-03-28T07:04:07.600Z,1.13
2023-03-28T07:06:35.830Z,0.93
2023-03-28T07:09:05.490Z,1.30
2023-03-28T07:11:48.600Z,1.73
2023-03-28T07:14:16.764Z,1.30
2023-03-28T07:16:43.632Z,1.30
2023-03-28T07:19:11.135Z,2.07
2023-03-28T07:21:41.533Z,1.10
2023-03-28T07:24:08.415Z,1.40
2023-03-28T07:26:46.622Z,1.20
2023-03-28T07:29:13.445Z,1.20
2023-03-28T07:31:40.585Z,1.93
2023-03-28T07:34:07.460Z,1.70
2023-03-28T07:36:34.585Z,1.40
2023-03-28T07:39:10.431Z,2.20
2023-03-28T07:41:38.465Z,1.37
2023-03-28T07:44:05.447Z,1.73
2023-03-28T07:46:32.357Z,1.60
2023-03-28T07:49:00.888Z,1.60
2023-03-28T07:51:28.543Z,2.10
2023-03-28T07:53:55.395Z,1.03
2023-03-28T07:56:22.887Z,1.20
2023-03-28T07:59:21.922Z,1.67
2023-03-28T08:01:52.654Z,1.50
2023-03-28T08:04:20.731Z,0.97
2023-03-28T08:06:58.455Z,1.10
2023-03-28T08:09:25.309Z,1.13
2023-03-28T08:12:06.628Z,1.50
2023-03-28T08:14:33.393Z,1.63
2023-03-28T08:17:00.125Z,1.50
2023-03-28T08:19:26.995Z,1.90
2023-03-28T08:22:22.953Z,1.50
2023-03-28T08:25:25.180Z,1.17
2023-03-28T08:27:53.757Z,1.20
2023-03-28T08:30:20.634Z,1.00
2023-03-28T08:32:52.937Z,0.97
2023-03-28T08:35:19.796Z,1.30
2023-03-28T08:37:51.342Z,0.60
2023-03-28T08:40:20.716Z,1.07
2023-03-28T08:43:05.561Z,1.03
2023-03-28T08:45:56.068Z,1.00
2023-03-28T08:48:27.205Z,1.20
2023-03-28T08:51:19.931Z,1.20
2023-03-28T08:53:53.494Z,0.87
2023-03-28T08:59:16.809Z,1.20
2023-03-28T09:01:44.865Z,2.03
2023-03-28T09:04:25.863Z,1.90
2023-03-28T09:07:35.878Z,1.70
2023-03-28T09:10:32.601Z,1.60
2023-03-28T09:13:17.592Z,1.17
2023-03-28T09:16:00.094Z,1.53
2023-03-28T09:22:16.469Z,1.10
2023-03-28T09:25:06.526Z,1.00
2023-03-28T09:27:50.065Z,1.17
2023-03-28T09:30:27.184Z,1.60
2023-03-28T09:32:58.774Z,1.07
2023-03-28T09:35:28.798Z,1.10
2023-03-28T09:38:24.905Z,1.80
2023-03-28T09:40:55.537Z,1.83
2023-03-28T09:43:40.747Z,1.47
2023-03-28T09:49:24.159Z,1.90
2023-03-28T09:52:19.367Z,1.30
2023-03-28T09:54:48.435Z,1.43
2023-03-28T09:57:15.520Z,1.90
2023-03-28T10:00:18.097Z,1.63
2023-03-28T10:03:12.417Z,2.10
2023-03-28T10:05:40.988Z,1.90
2023-03-28T10:08:28.692Z,2.67
2023-03-28T10:11:18.164Z,2.10
2023-03-28T10:13:51.102Z,2.47
2023-03-28T10:16:28.889Z,2.90
2023-03-28T10:18:58.670Z,2.30
2023-03-28T10:24:37.238Z,2.00
2023-03-28T10:27:17.335Z,1.97
2023-03-28T10:30:20.374Z,2.10
2023-03-28T10:33:09.088Z,1.70
2023-03-28T10:36:06.509Z,2.40
2023-03-28T10:38:46.002Z,1.97
2023-03-28T10:41:29.819Z,3.07
2023-03-28T10:47:19.141Z,2.73
2023-03-28T10:49:55.461Z,3.33
2023-03-28T10:52:43.442Z,2.43
2023-03-28T10:55:20.202Z,2.93
2023-03-28T10:58:33.180Z,2.30
2023-03-28T11:01:20.497Z,2.20
2023-03-28T11:04:06.995Z,1.80
2023-03-28T11:06:47.044Z,1.70
2023-03-28T11:09:36.775Z,2.33
2023-03-28T11:12:55.076Z,1.83
2023-03-28T11:15:55.336Z,2.23
2023-03-28T11:18:32.162Z,2.30
2023-03-28T11:21:23.305Z,1.98
2023-03-28T11:24:20.909Z,2.73
2023-03-28T11:27:28.926Z,2.77
2023-03-28T11:30:43.168Z,2.20
2023-03-28T11:33:46.348Z,3.43
2023-03-28T11:36:29.581Z,2.83
2023-03-28T11:39:49.034Z,2.70
2023-03-28T11:42:57.388Z,2.88
2023-03-28T11:45:49.515Z,3.03
2023-03-28T11:48:30.393Z,3.03
2023-03-28T11:51:19.324Z,3.30
2023-03-28T11:53:57.132Z,3.10
2023-03-28T11:57:01.546Z,3.22
2023-03-28T12:03:29.094Z,3.77
2023-03-28T12:06:22.138Z,4.00
2023-03-28T12:09:00.436Z,3.47
2023-03-28T12:11:54.075Z,3.60
2023-03-28T12:14:31.536Z,4.00
2023-03-28T12:17:27.157Z,4.77
2023-03-28T12:19:54.584Z,4.10
2023-03-28T12:22:32.614Z,4.10
2023-03-28T12:25:10.912Z,3.87
2023-03-28T12:27:59.836Z,3.23
2023-03-28T12:30:39.148Z,3.50
2023-03-28T12:33:20.248Z,3.92
2023-03-28T12:36:50.395Z,2.83
2023-03-28T12:39:43.516Z,3.72
2023-03-28T12:42:21.358Z,3.88
2023-03-28T12:45:14.591Z,2.88
2023-03-28T12:47:49.788Z,3.58
2023-03-28T12:53:12.416Z,3.88
2023-03-28T12:55:47.047Z,3.90
2023-03-28T12:58:28.555Z,4.67
2023-03-28T13:01:29.953Z,4.68
2023-03-28T13:04:59.574Z,4.65
2023-03-28T13:07:56.199Z,4.35
2023-03-28T13:11:20.083Z,4.55
2023-03-28T13:14:17.023Z,4.88
2023-03-28T13:17:01.755Z,4.03
2023-03-28T13:19:46.592Z,4.67
2023-03-28T13:22:34.995Z,5.47
2023-03-28T13:25:22.130Z,5.63
2023-03-28T13:27:50.145Z,5.25
2023-03-28T13:30:28.855Z,4.78
2023-03-28T13:33:06.694Z,5.15
2023-03-28T13:35:57.955Z,4.87
2023-03-28T13:38:35.710Z,4.60
2023-03-28T13:41:12.834Z,5.50
2023-03-28T13:43:48.249Z,4.75
2023-03-28T13:46:16.220Z,5.65
2023-03-28T13:49:28.400Z,5.05
2023-03-28T13:52:18.627Z,5.45
2023-03-28T13:54:46.441Z,5.57
2023-03-28T13:57:17.644Z,4.68
2023-03-28T13:59:52.562Z,5.00
2023-03-28T14:02:41.273Z,5.80
2023-03-28T14:05:24.786Z,5.25
2023-03-28T14:07:54.276Z,5.55
2023-03-28T14:10:32.554Z,5.95
2023-03-28T14:13:07.196Z,6.47
2023-03-28T14:15:43.200Z,6.17
2023-03-28T14:18:22.487Z,4.68
2023-03-28T14:20:49.351Z,5.17
2023-03-28T14:23:35.617Z,6.10
2023-03-28T14:26:08.152Z,6.35
2023-03-28T14:28:40.702Z,6.20
2023-03-28T14:31:27.881Z,5.72
2023-03-28T14:33:58.443Z,6.15
2023-03-28T14:36:59.050Z,5.18
2023-03-28T14:39:28.624Z,5.53
2023-03-28T14:41:56.850Z,6.03
2023-03-28T14:44:24.156Z,5.03
2023-03-28T14:46:51.206Z,5.70
2023-03-28T14:49:24.946Z,5.30
2023-03-28T14:51:59.797Z,5.53
2023-03-28T14:54:32.637Z,6.43
2023-03-28T14:57:01.075Z,5.30
2023-03-28T14:59:41.400Z,7.80
2023-03-28T15:02:41.868Z,5.93
2023-03-28T15:05:12.986Z,6.30
2023-03-28T15:07:39.971Z,6.65
2023-03-28T15:10:23.432Z,6.97
2023-03-28T15:12:58.375Z,5.85
2023-03-28T15:15:29.580Z,6.85
2023-03-28T15:17:59.043Z,6.60
2023-03-28T15:20:32.037Z,6.85
2023-03-28T15:23:01.929Z,5.50
2023-03-28T15:25:31.032Z,5.70
2023-03-28T15:28:01.410Z,6.13
2023-03-28T15:30:33.008Z,6.45
2023-03-28T15:33:03.883Z,5.22
2023-03-28T15:35:39.085Z,5.95
2023-03-28T15:38:27.863Z,5.38
2023-03-28T15:41:39.336Z,5.43
2023-03-28T15:44:21.584Z,4.85
2023-03-28T15:46:48.458Z,4.33
2023-03-28T15:49:15.521Z,4.85
2023-03-28T15:51:55.581Z,4.70
2023-03-28T15:54:31.458Z,4.93
2023-03-28T15:57:02.156Z,5.50
2023-03-28T15:59:58.894Z,4.43
2023-03-28T16:02:25.815Z,4.20
2023-03-28T16:05:07.968Z,4.20
2023-03-28T16:07:56.489Z,4.32
2023-03-28T16:10:43.809Z,4.00
2023-03-28T16:13:30.105Z,3.20
2023-03-28T16:16:22.986Z,3.03
2023-03-28T16:18:57.752Z,3.53
2023-03-28T16:21:25.714Z,3.80
2023-03-28T16:23:52.517Z,3.00
2023-03-28T16:26:19.440Z,3.65
2023-03-28T16:28:46.462Z,2.90
2023-03-28T16:31:15.662Z,3.40
2023-03-28T16:33:42.697Z,3.88
2023-03-28T16:36:12.293Z,3.70
2023-03-28T16:38:39.104Z,3.55
2023-03-28T16:41:06.403Z,4.05
2023-03-28T16:43:33.172Z,5.18
2023-03-28T16:46:00.243Z,3.70
2023-03-28T16:48:27.192Z,3.77
2023-03-28T16:50:59.294Z,5.20
2023-03-28T16:53:26.194Z,4.90
2023-03-28T16:55:53.197Z,5.63
2023-03-28T16:58:20.018Z,5.53
2023-03-28T17:00:50.212Z,5.47
2023-03-28T17:03:17.696Z,5.28
2023-03-28T17:05:44.509Z,6.45
2023-03-28T17:08:11.828Z,7.67
2023-03-28T17:10:40.634Z,6.60
2023-03-28T17:13:07.838Z,7.90
2023-03-28T17:15:35.125Z,8.03
2023-03-28T17:18:03.153Z,8.30
2023-03-28T17:20:31.203Z,6.85
2023-03-28T17:22:58.638Z,9.47
2023-03-28T17:25:25.746Z,8.73
2023-03-28T17:27:52.570Z,9.38
2023-03-28T17:30:19.420Z,9.63
2023-03-28T17:32:46.732Z,10.63
2023-03-28T17:35:14.737Z,11.00
2023-03-28T17:37:41.830Z,10.20
2023-03-28T17:40:09.105Z,10.20
2023-03-28T17:42:36.004Z,10.03
2023-03-28T17:45:03.561Z,9.33
2023-03-28T17:47:30.608Z,9.77
2023-03-28T17:50:00.407Z,8.97
2023-03-28T17:52:30.540Z,8.67
2023-03-28T17:54:58.146Z,10.20
2023-03-28T17:57:25.357Z,10.67
2023-03-28T17:59:52.598Z,10.03
2023-03-28T18:02:20.141Z,9.47
2023-03-28T18:04:58.744Z,10.77
2023-03-28T18:07:29.117Z,9.77
2023-03-28T18:10:00.944Z,11.07
2023-03-28T18:12:27.867Z,10.67
2023-03-28T18:14:54.556Z,10.17
2023-03-28T18:17:21.404Z,11.03
2023-03-28T18:19:48.588Z,11.67
2023-03-28T18:22:15.565Z,10.53
2023-03-28T18:24:42.309Z,10.67
2023-03-28T18:27:09.165Z,9.70
2023-03-28T18:29:36.042Z,11.23
2023-03-28T18:32:03.147Z,13.33
2023-03-28T18:34:29.933Z,11.33
2023-03-28T18:36:57.460Z,10.37
2023-03-28T18:39:24.288Z,11.40
2023-03-28T18:41:51.242Z,11.10
2023-03-28T18:44:18.458Z,11.97
2023-03-28T18:46:45.335Z,10.03
2023-03-28T18:49:12.071Z,11.27
2023-03-28T18:51:39.653Z,10.10
2023-03-28T18:54:06.530Z,8.90
2023-03-28T18:56:34.807Z,11.43
2023-03-28T18:59:02.420Z,11.00
2023-03-28T19:01:29.963Z,12.27
2023-03-28T19:03:56.914Z,11.45
2023-03-28T19:06:23.770Z,11.53
2023-03-28T19:08:51.184Z,11.10
2023-03-28T19:11:19.868Z,11.20
2023-03-28T19:13:46.650Z,11.23
2023-03-28T19:16:34.032Z,11.20
2023-03-28T19:19:19.800Z,10.33
2023-03-28T19:21:46.574Z,10.07
2023-03-28T19:24:13.293Z,9.90
2023-03-28T19:26:40.174Z,10.30
2023-03-28T19:29:07.418Z,9.50
2023-03-28T19:34:21.038Z,9.27
2023-03-28T19:36:48.049Z,9.37
2023-03-28T19:39:33.402Z,10.43
2023-03-28T19:44:44.307Z,8.63
2023-03-28T19:47:11.024Z,8.03
2023-03-28T19:49:38.750Z,7.93
2023-03-28T19:52:06.879Z,7.93
2023-03-28T19:54:33.652Z,7.97
2023-03-28T19:57:00.792Z,8.53
2023-03-28T19:59:28.085Z,8.37
2023-03-28T20:01:54.892Z,8.20
2023-03-28T20:04:21.655Z,8.80
2023-03-28T20:06:48.825Z,7.43
2023-03-28T20:09:15.787Z,8.30
2023-03-28T20:11:43.087Z,8.33
2023-03-28T20:14:10.016Z,7.37
2023-03-28T20:16:38.183Z,8.37
2023-03-28T20:19:05.740Z,8.47
2023-03-28T20:21:32.514Z,8.90
2023-03-28T20:23:59.302Z,8.23
2023-03-28T20:26:27.144Z,8.27
2023-03-28T20:28:56.930Z,7.87
2023-03-28T20:32:01.248Z,10.20
2023-03-28T20:34:28.092Z,9.13
2023-03-28T20:36:56.812Z,9.07
2023-03-28T20:39:26.525Z,9.50
2023-03-28T20:41:53.986Z,7.70
2023-03-28T20:44:40.244Z,8.50
2023-03-28T20:47:08.616Z,10.60
2023-03-28T20:49:36.188Z,10.30
2023-03-28T20:52:03.084Z,11.47
2023-03-28T20:54:29.911Z,10.90
2023-03-28T20:56:56.658Z,10.87
2023-03-28T20:59:24.581Z,10.47
2023-03-28T21:01:51.480Z,10.43
2023-03-28T21:04:18.331Z,8.93
2023-03-28T21:06:45.081Z,9.73
2023-03-28T21:09:18.089Z,9.00
2023-03-28T21:11:45.722Z,9.87
2023-03-28T21:14:13.953Z,10.73
2023-03-28T21:16:41.965Z,10.65
2023-03-28T21:19:09.284Z,10.80
2023-03-28T21:21:36.268Z,10.60
2023-03-28T21:24:04.618Z,10.50
2023-03-28T21:26:32.001Z,9.87
2023-03-28T21:28:59.479Z,10.00
2023-03-28T21:31:28.583Z,10.43
2023-03-28T21:33:57.406Z,10.67
2023-03-28T21:39:09.624Z,11.60
2023-03-28T21:41:38.121Z,11.80
2023-03-28T21:44:05.007Z,11.80
2023-03-28T21:46:50.620Z,11.73
2023-03-28T21:49:18.246Z,10.03
2023-03-28T21:51:45.379Z,11.83
2023-03-28T21:54:12.127Z,11.53
2023-03-28T21:56:38.860Z,11.47
2023-03-28T21:59:05.782Z,12.80
2023-03-28T22:01:32.844Z,13.13
2023-03-28T22:03:59.674Z,11.83
2023-03-28T22:06:26.622Z,12.33
2023-03-28T22:08:55.185Z,12.70
2023-03-28T22:11:27.969Z,13.40
2023-03-28T22:14:02.385Z,13.73
2023-03-28T22:16:31.598Z,14.87
2023-03-28T22:18:58.486Z,13.53
2023-03-28T22:21:25.285Z,13.00
2023-03-28T22:24:13.146Z,14.67
2023-03-28T22:26:41.213Z,14.63
2023-03-28T22:29:08.463Z,16.13
2023-03-28T22:31:35.474Z,14.83
2023-03-28T22:36:49.484Z,15.17
2023-03-28T22:39:20.227Z,13.23
2023-03-28T22:41:47.276Z,13.73
2023-03-28T22:44:14.882Z,16.10
2023-03-28T22:46:42.901Z,15.53
2023-03-28T22:49:10.430Z,13.63
2023-03-28T22:51:46.387Z,14.47
2023-03-28T22:54:25.270Z,16.43
2023-03-28T22:56:52.666Z,16.27
2023-03-28T22:59:19.376Z,14.57
2023-03-28T23:01:46.569Z,15.97
2023-03-28T23:04:13.385Z,15.17
2023-03-28T23:06:40.697Z,15.00
2023-03-28T23:09:08.561Z,14.67
2023-03-28T23:11:35.902Z,17.83
2023-03-28T23:14:21.544Z,16.43
2023-03-28T23:16:48.454Z,16.73
2023-03-28T23:19:16.371Z,15.47
2023-03-28T23:21:43.318Z,16.37
2023-03-28T23:24:10.087Z,15.23
2023-03-28T23:26:36.819Z,16.20
2023-03-28T23:29:05.231Z,14.97
2023-03-28T23:31:32.135Z,14.00
2023-03-28T23:33:58.934Z,14.63
2023-03-28T23:36:26.215Z,16.50
2023-03-28T23:38:53.176Z,15.20
2023-03-28T23:41:20.026Z,14.60
2023-03-28T23:43:46.778Z,14.93
2023-03-28T23:46:14.419Z,13.77
2023-03-28T23:48:41.550Z,14.37
2023-03-28T23:51:09.056Z,12.43
2023-03-28T23:53:35.788Z,14.27
2023-03-28T23:56:03.696Z,13.37
2023-03-28T23:58:30.735Z,13.40
